Time;durP1;ratioP1;P1;durP2;ratioP2;P2;SDS_P1;SDS_P2;PMS_P1;PMS_P2;Temp;Humidity;BMP_temperature;BMP_pressure;BME280_temperature;BME280_humidity;BME280_pressure;Samples;Min_cycle;Max_cycle;Signal;HPM_P1;HPM_P2
2022/05/26 00:01:24;;;;;;;21.65;3.75;;;12.30;99.90;;;;;;5036348;28;20046;-79
2022/05/26 00:03:52;;;;;;;24.27;3.83;;;12.30;99.90;;;;;;5035724;28;20068;-82
2022/05/26 00:06:23;;;;;;;24.50;4.00;;;12.30;99.90;;;;;;5033076;28;20053;-81
2022/05/26 00:08:51;;;;;;;28.38;3.90;;;12.20;99.90;;;;;;5035871;28;20367;-79
2022/05/26 00:11:34;;;;;;;24.48;3.90;;;12.20;99.90;;;;;;5034538;28;20356;-79
2022/05/26 00:14:08;;;;;;;20.98;3.95;;;12.20;99.90;;;;;;5035788;28;20060;-79
2022/05/26 00:16:37;;;;;;;19.90;3.75;;;12.20;99.90;;;;;;5035755;28;20056;-81
2022/05/26 00:19:05;;;;;;;23.67;4.03;;;12.20;99.90;;;;;;5034273;28;20056;-81
2022/05/26 00:21:32;;;;;;;23.10;3.92;;;12.20;99.90;;;;;;5035900;28;20042;-79
2022/05/26 00:24:00;;;;;;;21.60;3.90;;;12.10;99.90;;;;;;5035837;28;20056;-81
2022/05/26 00:26:28;;;;;;;29.23;4.18;;;12.10;99.90;;;;;;5034385;28;20037;-79
2022/05/26 00:28:55;;;;;;;25.05;4.00;;;12.10;99.90;;;;;;5034614;28;20053;-81
2022/05/26 00:31:24;;;;;;;22.92;3.67;;;12.10;99.90;;;;;;5034303;28;20357;-79
2022/05/26 00:33:51;;;;;;;23.20;3.58;;;12.10;99.90;;;;;;5019090;28;20050;-79
2022/05/26 00:36:37;;;;;;;22.30;3.70;;;12.10;99.90;;;;;;5015186;28;20046;-80
2022/05/26 00:39:08;;;;;;;23.23;3.65;;;12.10;99.90;;;;;;5014550;28;20046;-79
2022/05/26 00:41:41;;;;;;;25.58;3.78;;;12.10;99.90;;;;;;4998502;28;20057;-80
2022/05/26 00:44:12;;;;;;;23.60;4.18;;;12.00;99.90;;;;;;4998245;28;20041;-80
2022/05/26 00:47:03;;;;;;;23.70;3.80;;;12.00;99.90;;;;;;4997357;28;20046;-81
2022/05/26 00:49:50;;;;;;;26.42;3.80;;;11.90;99.90;;;;;;5007985;28;20456;-79
2022/05/26 00:52:23;;;;;;;;;;;12.00;99.90;;;;;;5014572;28;20041;-80
2022/05/26 00:54:54;;;;;;;26.63;4.10;;;11.90;99.90;;;;;;5015191;28;20367;-81
2022/05/26 00:57:33;;;;;;;30.63;3.90;;;11.90;99.90;;;;;;5015223;28;20377;-81
2022/05/26 01:00:06;;;;;;;24.58;4.15;;;11.90;99.90;;;;;;5014159;28;20042;-79
2022/05/26 01:02:47;;;;;;;29.83;4.55;;;11.80;99.90;;;;;;5015161;28;20052;-79
2022/05/26 01:05:22;;;;;;;26.02;4.03;;;11.80;99.90;;;;;;4997349;28;20042;-78
2022/05/26 01:07:50;;;;;;;27.98;4.20;;;11.80;99.90;;;;;;5015283;28;20491;-80
2022/05/26 01:10:18;;;;;;;23.88;4.10;;;11.80;99.90;;;;;;4998051;28;20037;-82
2022/05/26 01:12:46;;;;;;;27.80;4.43;;;11.80;99.90;;;;;;4996992;28;20038;-79
2022/05/26 01:15:19;;;;;;;25.52;4.10;;;11.80;99.90;;;;;;4997894;28;20053;-81
2022/05/26 01:17:56;;;;;;;28.85;4.53;;;11.70;99.90;;;;;;5014282;28;20046;-79
2022/05/26 01:20:34;;;;;;;31.77;4.15;;;11.70;99.90;;;;;;5015400;28;20042;-81
2022/05/26 01:23:38;;;;;;;22.25;4.10;;;11.70;99.90;;;;;;5015262;28;20050;-81
2022/05/26 01:26:09;;;;;;;24.48;4.03;;;11.70;99.90;;;;;;5014033;28;20049;-81
2022/05/26 01:28:52;;;;;;;24.92;4.32;;;11.60;99.90;;;;;;5015032;28;20057;-81
2022/05/26 01:31:38;;;;;;;25.58;4.05;;;11.60;99.90;;;;;;5013647;28;20050;-78
2022/05/26 01:34:33;;;;;;;24.73;4.43;;;11.60;99.90;;;;;;5014743;28;20354;-79
2022/05/26 01:37:23;;;;;;;25.77;4.38;;;11.60;99.90;;;;;;4997666;28;20048;-79
2022/05/26 01:40:09;;;;;;;27.92;4.65;;;11.60;99.90;;;;;;5013735;28;20050;-80
2022/05/26 01:43:07;;;;;;;25.63;4.30;;;11.50;99.90;;;;;;4997332;28;20057;-79
2022/05/26 01:45:53;;;;;;;29.25;4.15;;;11.50;99.90;;;;;;5013591;28;20053;-80
2022/05/26 01:48:28;;;;;;;29.08;3.90;;;11.50;99.90;;;;;;5014824;28;20065;-79
2022/05/26 01:51:08;;;;;;;23.85;3.92;;;11.40;99.90;;;;;;5001609;28;20053;-79
2022/05/26 01:53:58;;;;;;;27.20;4.28;;;11.40;99.90;;;;;;5018882;28;20038;-80
2022/05/26 01:56:31;;;;;;;30.25;4.78;;;11.40;99.90;;;;;;5018540;28;20046;-79
2022/05/26 01:59:06;;;;;;;25.90;4.15;;;11.40;99.90;;;;;;5017370;28;20049;-81
2022/05/26 02:01:40;;;;;;;24.92;4.03;;;11.30;99.90;;;;;;5018755;28;20049;-79
2022/05/26 02:04:19;;;;;;;28.00;4.45;;;11.30;99.90;;;;;;5018519;28;20037;-80
2022/05/26 02:06:51;;;;;;;32.72;4.15;;;11.40;99.90;;;;;;5017263;28;20049;-79
2022/05/26 02:09:38;;;;;;;29.30;4.40;;;11.30;99.90;;;;;;5018202;28;20046;-78
2022/05/26 02:12:14;;;;;;;28.92;4.40;;;11.30;99.90;;;;;;5000165;28;20068;-80
2022/05/26 02:14:54;;;;;;;27.13;3.92;;;11.30;99.90;;;;;;5018154;28;20046;-81
2022/05/26 02:17:25;;;;;;;27.77;4.03;;;11.30;99.90;;;;;;5000817;28;20045;-78
2022/05/26 02:20:03;;;;;;;26.00;4.40;;;11.20;99.90;;;;;;4999683;28;20042;-81
2022/05/26 02:22:49;;;;;;;29.65;4.35;;;11.20;99.90;;;;;;5017863;28;20038;-78
2022/05/26 02:25:22;;;;;;;31.17;4.57;;;11.20;99.90;;;;;;5017213;28;20364;-79
2022/05/26 02:27:53;;;;;;;33.22;5.03;;;11.20;99.90;;;;;;5000895;28;20049;-79
2022/05/26 02:30:27;;;;;;;24.13;3.88;;;11.20;99.90;;;;;;5000809;28;20068;-80
2022/05/26 02:32:55;;;;;;;28.08;3.85;;;11.10;99.90;;;;;;5012684;28;20049;-80
2022/05/26 02:35:29;;;;;;;29.42;4.40;;;11.20;99.90;;;;;;5037584;28;20041;-79
2022/05/26 02:38:01;;;;;;;27.80;4.57;;;11.20;99.90;;;;;;5035652;28;20037;-81
2022/05/26 02:40:29;;;;;;;24.52;4.22;;;11.20;99.90;;;;;;5037436;28;20046;-81
2022/05/26 02:43:04;;;;;;;23.83;4.13;;;11.10;99.90;;;;;;5037351;28;20041;-79
2022/05/26 02:46:01;;;;;;;28.77;4.25;;;11.10;99.90;;;;;;5036172;28;20045;-78
2022/05/26 02:48:47;;;;;;;29.67;4.00;;;11.20;99.90;;;;;;5036669;28;20049;-81
2022/05/26 02:51:37;;;;;;;28.85;3.92;;;11.10;99.90;;;;;;5036299;28;20041;-81
2022/05/26 02:54:32;;;;;;;35.55;4.70;;;11.10;99.90;;;;;;5037694;28;20045;-79
2022/05/26 02:57:14;;;;;;;30.45;4.03;;;11.10;99.90;;;;;;5036964;28;20042;-80
2022/05/26 03:00:01;;;;;;;26.10;4.13;;;11.10;99.90;;;;;;5034982;28;20060;-79
2022/05/26 03:02:49;;;;;;;28.30;4.28;;;11.00;99.90;;;;;;5036411;28;20492;-79
2022/05/26 03:05:38;;;;;;;27.73;4.95;;;11.00;99.90;;;;;;5035821;28;20041;-80
2022/05/26 03:08:08;;;;;;;30.17;4.65;;;11.00;99.90;;;;;;5019440;28;20049;-79
2022/05/26 03:10:37;;;;;;;25.95;4.63;;;11.10;99.90;;;;;;5036765;28;20037;-81
2022/05/26 03:13:04;;;;;;;35.95;4.90;;;11.00;99.90;;;;;;5034728;28;20049;-80
2022/05/26 03:15:32;;;;;;;27.85;5.07;;;11.10;99.90;;;;;;5036819;28;20045;-80
2022/05/26 03:18:01;;;;;;;;;;;11.00;99.90;;;;;;5018690;28;20045;-79
2022/05/26 03:20:29;;;;;;;26.00;4.65;;;11.10;99.90;;;;;;5036484;28;19932;-79
2022/05/26 03:22:56;;;;;;;27.05;4.72;;;11.10;99.90;;;;;;5035681;28;20510;-81
2022/05/26 03:25:27;;;;;;;26.10;3.90;;;11.00;99.90;;;;;;5034968;28;20052;-78
2022/05/26 03:27:55;;;;;;;29.48;4.32;;;11.10;99.90;;;;;;5036673;28;20052;-79
2022/05/26 03:30:22;;;;;;;22.55;4.25;;;11.10;99.90;;;;;;5035795;28;20068;-78
2022/05/26 03:32:50;;;;;;;28.58;4.93;;;11.00;99.90;;;;;;5027623;28;20372;-79
2022/05/26 03:40:58;;;;;;;25.63;4.18;;;11.00;99.90;;;;;;5016565;28;20053;-80
2022/05/26 03:43:34;;;;;;;25.20;4.13;;;11.00;99.90;;;;;;4999840;28;20053;-78
2022/05/26 03:46:02;;;;;;;28.00;4.40;;;11.10;99.90;;;;;;5015545;28;20048;-80
2022/05/26 03:48:29;;;;;;;;;;;11.00;99.90;;;;;;5016707;28;20372;-79
2022/05/26 03:50:58;;;;;;;23.45;3.95;;;11.00;99.90;;;;;;4983384;28;19932;-79
2022/05/26 03:53:25;;;;;;;25.45;4.40;;;11.10;99.90;;;;;;5015084;28;20049;-79
2022/05/26 03:55:53;;;;;;;27.08;4.03;;;11.00;99.90;;;;;;5016136;28;20376;-79
2022/05/26 03:58:21;;;;;;;26.17;4.13;;;10.90;99.90;;;;;;5015383;28;20057;-79
2022/05/26 04:00:49;;;;;;;21.20;4.32;;;11.00;99.90;;;;;;4999173;28;20046;-80
2022/05/26 04:03:17;;;;;;;22.73;4.28;;;10.90;99.90;;;;;;4999262;28;20061;-80
2022/05/26 04:05:44;;;;;;;23.38;4.00;;;11.00;99.90;;;;;;5014916;28;20125;-80
2022/05/26 04:08:13;;;;;;;25.42;4.45;;;10.90;99.90;;;;;;5015810;28;20054;-78
2022/05/26 04:10:41;;;;;;;21.20;4.07;;;11.00;99.90;;;;;;4999287;28;20057;-79
2022/05/26 04:13:09;;;;;;;33.13;4.53;;;10.90;99.90;;;;;;5014270;28;20523;-81
2022/05/26 04:15:37;;;;;;;24.20;4.13;;;11.00;99.90;;;;;;5015757;28;20042;-78
2022/05/26 04:18:05;;;;;;;27.90;4.28;;;11.00;99.90;;;;;;5014928;28;20217;-80
2022/05/26 04:20:32;;;;;;;18.38;3.70;;;10.90;99.90;;;;;;5015969;28;20046;-81
2022/05/26 04:23:00;;;;;;;30.63;4.32;;;10.90;99.90;;;;;;5015592;28;20468;-80
2022/05/26 04:25:29;;;;;;;29.70;4.38;;;10.90;99.90;;;;;;4997836;28;20054;-81
2022/05/26 04:27:56;;;;;;;25.33;4.15;;;10.90;99.90;;;;;;5015561;28;20357;-81
2022/05/26 04:30:25;;;;;;;30.95;4.90;;;11.00;99.90;;;;;;5015485;28;20380;-80
2022/05/26 04:32:53;;;;;;;21.48;4.00;;;11.00;99.90;;;;;;5014522;28;20472;-79
2022/05/26 04:35:20;;;;;;;34.53;4.60;;;11.00;99.90;;;;;;4998316;28;20065;-79
2022/05/26 04:37:48;;;;;;;21.77;4.35;;;11.00;99.90;;;;;;5014668;28;20053;-82
2022/05/26 04:40:16;;;;;;;27.90;4.13;;;11.00;99.90;;;;;;5015520;28;20380;-79
2022/05/26 04:42:43;;;;;;;27.73;4.40;;;11.00;99.90;;;;;;4998514;28;20044;-78
2022/05/26 04:45:13;;;;;;;24.40;4.28;;;11.00;99.90;;;;;;4997249;28;20045;-78
2022/05/26 04:47:41;;;;;;;24.55;4.40;;;11.10;99.90;;;;;;5015157;28;20050;-80
2022/05/26 04:50:10;;;;;;;23.00;4.35;;;11.00;99.90;;;;;;4998168;28;20057;-79
2022/05/26 04:52:37;;;;;;;31.08;4.55;;;11.10;99.90;;;;;;4997362;28;20041;-79
2022/05/26 04:55:06;;;;;;;26.77;4.75;;;11.20;99.90;;;;;;4998304;28;20050;-80
2022/05/26 04:57:33;;;;;;;;;;;11.20;99.90;;;;;;4998412;28;20053;-79
2022/05/26 05:00:02;;;;;;;24.13;4.55;;;11.10;99.90;;;;;;5014021;28;19941;-79
2022/05/26 05:02:29;;;;;;;22.48;4.78;;;11.20;99.90;;;;;;5015259;28;20050;-79
2022/05/26 05:05:00;;;;;;;23.10;4.80;;;11.20;99.90;;;;;;5014367;28;20050;-81
2022/05/26 05:07:27;;;;;;;24.58;5.72;;;11.30;99.90;;;;;;4998262;28;20050;-81
2022/05/26 05:09:55;;;;;;;31.10;7.05;;;11.40;99.90;;;;;;4997896;28;20057;-78
2022/05/26 05:12:24;;;;;;;;;;;11.40;99.90;;;;;;5014343;28;20042;-80
2022/05/26 05:14:53;;;;;;;23.85;4.55;;;11.40;99.90;;;;;;4998019;28;19928;-80
2022/05/26 05:17:22;;;;;;;25.10;4.72;;;11.50;99.90;;;;;;5014835;28;20057;-80
2022/05/26 05:19:50;;;;;;;22.63;4.30;;;11.60;99.90;;;;;;5013786;28;20460;-80
2022/05/26 05:22:27;;;;;;;22.60;4.35;;;11.60;99.90;;;;;;5015008;28;20054;-81
2022/05/26 05:25:03;;;;;;;23.90;4.43;;;11.70;99.90;;;;;;5000011;28;20050;-79
2022/05/26 05:27:44;;;;;;;21.02;4.97;;;11.80;99.90;;;;;;5019126;28;20060;-80
2022/05/26 05:30:23;;;;;;;25.60;5.00;;;11.90;99.90;;;;;;5002279;28;20372;-81
2022/05/26 05:33:03;;;;;;;21.77;4.60;;;11.90;99.90;;;;;;5017935;28;20065;-80
2022/05/26 05:35:43;;;;;;;21.33;4.60;;;12.00;99.90;;;;;;5001649;28;20053;-80
2022/05/26 05:38:11;;;;;;;23.80;4.55;;;12.10;99.90;;;;;;5018047;28;20046;-80
2022/05/26 05:40:38;;;;;;;26.77;3.85;;;12.20;99.90;;;;;;5001735;28;20069;-79
2022/05/26 05:43:06;;;;;;;18.42;3.95;;;12.20;99.90;;;;;;5001661;28;20046;-82
2022/05/26 05:45:34;;;;;;;17.90;3.88;;;12.30;99.90;;;;;;5017569;28;20042;-79
2022/05/26 05:48:02;;;;;;;21.17;4.00;;;12.50;99.90;;;;;;5018535;28;20053;-78
2022/05/26 05:50:29;;;;;;;21.77;3.60;;;12.50;99.90;;;;;;5018479;28;20388;-78
2022/05/26 05:52:56;;;;;;;23.02;3.78;;;12.50;99.90;;;;;;5000756;28;20054;-78
2022/05/26 05:55:25;;;;;;;18.35;3.28;;;12.60;99.90;;;;;;5018502;28;20046;-77
2022/05/26 05:57:52;;;;;;;17.40;3.38;;;12.70;99.90;;;;;;5018160;28;20049;-78
2022/05/26 06:00:20;;;;;;;15.63;3.33;;;12.80;99.90;;;;;;5018924;28;20053;-78
2022/05/26 06:02:54;;;;;;;16.05;3.10;;;12.80;99.90;;;;;;5000691;28;20057;-78
2022/05/26 06:05:22;;;;;;;14.95;3.00;;;12.90;99.90;;;;;;5000173;28;20050;-79
2022/05/26 06:07:49;;;;;;;17.90;3.13;;;13.00;99.90;;;;;;5018122;28;20391;-79
2022/05/26 06:10:17;;;;;;;15.63;3.00;;;13.00;99.90;;;;;;5018128;28;20050;-78
2022/05/26 06:12:46;;;;;;;17.27;3.05;;;13.10;99.90;;;;;;5017364;28;20368;-79
2022/05/26 06:15:13;;;;;;;20.30;2.88;;;13.10;99.90;;;;;;5018156;28;20050;-78
2022/05/26 06:17:42;;;;;;;15.00;2.80;;;13.20;99.90;;;;;;5018642;28;20361;-78
2022/05/26 06:20:12;;;;;;;14.13;2.67;;;13.30;99.90;;;;;;5017705;28;20057;-79
2022/05/26 06:22:45;;;;;;;19.63;2.90;;;13.40;99.90;;;;;;5001009;28;20042;-78
2022/05/26 06:25:15;;;;;;;16.35;3.28;;;13.50;99.90;;;;;;5017094;28;20050;-78
2022/05/26 06:30:32;;;;;;;13.40;2.65;;;13.60;99.90;;;;;;5018143;28;20046;-78
2022/05/26 06:38:37;;;;;;;19.20;2.80;;;13.80;99.90;;;;;;5035963;28;20049;-79
2022/05/26 06:43:58;;;;;;;14.80;2.75;;;13.90;99.90;;;;;;5037266;28;20041;-79
2022/05/26 06:46:26;;;;;;;15.82;2.83;;;14.00;99.90;;;;;;5034882;28;20050;-78
2022/05/26 06:48:53;;;;;;;15.27;3.28;;;14.10;99.90;;;;;;5036925;28;20049;-79
2022/05/26 06:51:24;;;;;;;18.73;2.60;;;14.10;99.90;;;;;;5035948;28;20049;-78
2022/05/26 06:53:52;;;;;;;15.20;2.53;;;14.10;99.90;;;;;;5037037;28;20049;-78
2022/05/26 06:56:20;;;;;;;15.73;3.17;;;14.20;99.90;;;;;;5036809;28;20056;-79
2022/05/26 06:58:48;;;;;;;16.50;3.08;;;14.20;99.90;;;;;;5035667;28;20037;-78
2022/05/26 07:01:15;;;;;;;11.40;2.58;;;14.30;99.90;;;;;;5035574;28;20048;-78
2022/05/26 07:03:44;;;;;;;20.23;3.20;;;14.40;99.90;;;;;;5036686;28;20052;-79
2022/05/26 07:06:18;;;;;;;13.65;2.60;;;14.50;99.90;;;;;;5035566;28;20108;-79
2022/05/26 07:08:47;;;;;;;12.57;2.33;;;14.80;99.90;;;;;;5019193;28;20061;-81
2022/05/26 07:11:16;;;;;;;13.20;2.28;;;14.90;99.90;;;;;;5035315;28;20049;-79
2022/05/26 07:13:44;;;;;;;12.88;2.10;;;15.00;99.90;;;;;;5036402;28;20049;-78
2022/05/26 07:16:13;;;;;;;16.00;2.72;;;15.20;99.90;;;;;;5036270;28;20494;-79
2022/05/26 07:18:42;;;;;;;13.80;2.67;;;15.30;99.90;;;;;;5035223;28;20046;-79
2022/05/26 07:21:10;;;;;;;14.52;2.90;;;15.40;99.90;;;;;;5036536;28;20049;-78
2022/05/26 07:23:38;;;;;;;13.35;2.50;;;15.50;99.90;;;;;;5035672;28;20053;-79
2022/05/26 07:26:07;;;;;;;10.65;2.50;;;15.50;99.90;;;;;;5035111;28;20383;-78
2022/05/26 07:28:36;;;;;;;14.40;2.90;;;15.60;99.90;;;;;;5036296;28;20045;-79
2022/05/26 07:31:04;;;;;;;16.35;2.75;;;15.50;99.90;;;;;;5051701;28;20049;-78
2022/05/26 07:33:32;;;;;;;11.93;2.63;;;15.60;99.90;;;;;;5022671;28;20054;-79
2022/05/26 07:35:59;;;;;;;13.13;2.50;;;15.60;99.90;;;;;;4999597;28;20057;-74
2022/05/26 07:41:26;;;;;;;13.38;2.40;;;15.60;99.90;;;;;;5015832;28;20042;-80
2022/05/26 07:43:59;;;;;;;12.57;2.53;;;15.70;99.90;;;;;;4999567;28;20044;-81
2022/05/26 07:46:27;;;;;;;13.77;2.67;;;15.80;99.90;;;;;;5014469;28;20113;-81
2022/05/26 07:48:55;;;;;;;;;;;15.90;99.90;;;;;;5016748;28;20050;-80
2022/05/26 07:51:22;;;;;;;13.02;2.25;;;16.00;99.90;;;;;;5015441;28;19936;-81
2022/05/26 07:53:50;;;;;;;14.75;2.58;;;16.10;99.90;;;;;;5016555;28;20461;-81
2022/05/26 07:56:18;;;;;;;;;;;16.10;99.90;;;;;;5016622;28;20373;-81
2022/05/26 07:58:47;;;;;;;12.32;2.20;;;16.20;99.90;;;;;;4997909;28;19921;-80
2022/05/26 08:01:15;;;;;;;10.85;2.25;;;16.20;99.90;;;;;;5016384;28;20045;-82
2022/05/26 08:03:46;;;;;;;10.55;2.33;;;16.20;99.90;;;;;;5016183;28;20042;-80
2022/05/26 08:06:14;;;;;;;14.43;2.45;;;16.20;99.90;;;;;;5015121;28;20053;-80
2022/05/26 08:08:42;;;;;;;;;;;16.30;99.90;;;;;;4999021;28;20049;-81
2022/05/26 08:11:09;;;;;;;12.68;2.50;;;16.40;99.90;;;;;;5014828;28;19921;-81
2022/05/26 08:13:37;;;;;;;11.52;2.30;;;16.60;99.90;;;;;;5016093;28;20460;-82
2022/05/26 08:16:05;;;;;;;12.43;2.20;;;16.80;99.90;;;;;;5015897;28;20069;-81
2022/05/26 08:18:34;;;;;;;13.25;2.53;;;16.90;99.90;;;;;;5014843;28;20065;-82
2022/05/26 08:21:08;;;;;;;12.55;2.53;;;17.00;99.90;;;;;;5004173;28;20056;-79
2022/05/26 08:23:36;;;;;;;12.25;2.47;;;17.10;99.90;;;;;;5018861;28;20056;-81
2022/05/26 08:26:04;;;;;;;15.43;2.25;;;17.10;99.90;;;;;;5034666;28;20045;-81
2022/05/26 08:28:33;;;;;;;;;;;17.20;99.90;;;;;;5036212;28;20053;-81
2022/05/26 08:31:01;;;;;;;9.98;2.10;;;17.20;99.90;;;;;;5018344;28;20287;-82
2022/05/26 08:33:32;;;;;;;13.93;2.15;;;17.20;99.90;;;;;;5034683;28;20061;-81
2022/05/26 08:36:05;;;;;;;13.93;2.35;;;17.20;99.90;;;;;;5010276;28;20504;-76
2022/05/26 08:38:33;;;;;;;11.90;2.30;;;17.20;99.90;;;;;;5012441;28;20056;-78
2022/05/26 08:41:00;;;;;;;13.15;2.42;;;17.20;99.90;;;;;;5014775;28;20041;-77
2022/05/26 08:43:41;;;;;;;15.07;2.47;;;17.30;99.90;;;;;;5014961;28;20364;-78
2022/05/26 08:46:13;;;;;;;12.82;2.20;;;17.30;99.90;;;;;;5013736;28;20037;-77
2022/05/26 08:49:10;;;;;;;16.88;2.53;;;17.40;99.90;;;;;;5015454;28;20052;-77
2022/05/26 08:52:00;;;;;;;11.10;2.40;;;17.40;99.90;;;;;;5002011;28;20053;-77
2022/05/26 08:54:39;;;;;;;11.18;2.28;;;17.40;99.90;;;;;;4998293;28;20046;-77
2022/05/26 08:57:12;;;;;;;12.48;2.47;;;17.40;99.90;;;;;;5015357;28;20057;-77
2022/05/26 08:59:44;;;;;;;11.27;2.30;;;17.40;99.90;;;;;;4996983;28;20468;-77
2022/05/26 09:02:26;;;;;;;12.00;2.30;;;17.50;99.90;;;;;;5015001;28;20049;-77
2022/05/26 09:05:00;;;;;;;11.25;2.42;;;17.50;99.90;;;;;;4997549;28;20050;-77
2022/05/26 09:13:24;;;;;;;11.52;2.30;;;17.80;99.90;;;;;;5013848;28;20054;-77
2022/05/26 09:15:51;;;;;;;11.20;2.33;;;17.80;99.90;;;;;;4997138;28;20064;-77
2022/05/26 09:18:25;;;;;;;17.15;2.47;;;17.90;99.90;;;;;;5013930;28;20488;-77
2022/05/26 09:20:53;;;;;;;16.50;2.30;;;18.10;99.90;;;;;;5014720;28;20048;-77
2022/05/26 09:23:27;;;;;;;11.30;2.35;;;18.20;99.90;;;;;;5014848;28;20045;-78
2022/05/26 09:26:06;;;;;;;8.15;1.70;;;18.40;99.90;;;;;;5014112;28;20376;-77
2022/05/26 09:28:37;;;;;;;12.65;2.30;;;18.60;99.90;;;;;;5015113;28;20049;-77
2022/05/26 09:31:34;;;;;;;8.32;1.98;;;18.90;99.90;;;;;;5014451;28;20507;-77
2022/05/26 09:34:15;;;;;;;13.38;2.10;;;18.80;99.90;;;;;;5014701;28;20046;-77
2022/05/26 09:36:52;;;;;;;10.13;1.85;;;18.80;99.90;;;;;;5014878;28;20065;-77
2022/05/26 09:39:30;;;;;;;9.27;1.88;;;18.80;99.90;;;;;;5013700;28;20464;-77
2022/05/26 09:41:58;;;;;;;;;;;18.80;99.90;;;;;;4997874;28;20056;-78
2022/05/26 09:44:46;;;;;;;10.68;2.15;;;18.80;99.90;;;;;;4996914;28;19921;-78
2022/05/26 09:47:26;;;;;;;9.50;2.25;;;18.90;99.90;;;;;;4997771;28;20046;-78
2022/05/26 09:49:57;;;;;;;8.43;1.80;;;18.90;99.90;;;;;;5014327;28;20460;-77
2022/05/26 09:52:30;;;;;;;11.38;2.22;;;18.90;99.90;;;;;;4996919;28;20042;-77
2022/05/26 09:55:17;;;;;;;8.98;2.00;;;18.80;99.90;;;;;;5014115;28;20042;-78
2022/05/26 09:57:47;;;;;;;9.82;2.00;;;18.90;99.90;;;;;;5014160;28;20141;-79
2022/05/26 10:00:37;;;;;;;9.38;1.85;;;18.90;99.90;;;;;;5014108;28;20495;-79
2022/05/26 10:03:30;;;;;;;12.82;2.17;;;19.00;99.90;;;;;;4997208;28;20057;-79
2022/05/26 10:06:15;;;;;;;11.73;2.15;;;19.20;99.90;;;;;;4987075;28;20054;-76
2022/05/26 10:09:07;;;;;;;13.27;2.10;;;19.30;99.90;;;;;;5014056;28;20049;-78
2022/05/26 10:12:08;;;;;;;8.93;1.88;;;19.50;99.90;;;;;;5016754;28;20392;-77
2022/05/26 10:14:56;;;;;;;8.10;1.77;;;19.40;99.90;;;;;;5017813;28;20069;-76
2022/05/26 10:18:00;;;;;;;11.13;2.53;;;19.40;99.50;;;;;;5017911;28;20104;-77
2022/05/26 10:20:51;;;;;;;11.55;2.38;;;19.40;99.40;;;;;;5017557;28;20046;-80
2022/05/26 10:23:39;;;;;;;9.60;2.22;;;19.30;99.90;;;;;;5017424;28;20046;-80
2022/05/26 10:26:22;;;;;;;11.82;2.72;;;19.30;99.90;;;;;;4999546;28;20046;-79
2022/05/26 10:29:22;;;;;;;12.00;2.45;;;19.40;99.80;;;;;;5000549;28;20350;-79
2022/05/26 10:31:57;;;;;;;11.60;1.98;;;19.30;99.90;;;;;;5008740;28;20064;-78
2022/05/26 10:34:38;;;;;;;6.90;1.95;;;19.40;99.90;;;;;;5017658;28;20050;-78
2022/05/26 10:37:39;;;;;;;8.75;2.38;;;19.40;99.90;;;;;;5017353;28;20056;-78
2022/05/26 10:40:33;;;;;;;9.07;2.40;;;19.40;99.90;;;;;;4978822;28;20042;-78
2022/05/26 10:43:25;;;;;;;13.27;2.55;;;19.40;99.90;;;;;;5017274;28;20042;-79
2022/05/26 10:45:59;;;;;;;11.27;2.00;;;19.40;99.80;;;;;;5016510;28;20046;-79
2022/05/26 10:48:48;;;;;;;9.23;2.50;;;19.40;99.90;;;;;;5026209;28;20045;-75
2022/05/26 10:51:35;;;;;;;14.10;2.40;;;19.40;99.70;;;;;;5002145;28;20061;-79
2022/05/26 10:54:16;;;;;;;19.73;2.50;;;19.40;99.90;;;;;;5028979;28;20511;-83
2022/05/26 10:56:52;;;;;;;9.30;1.98;;;19.50;99.90;;;;;;5017650;28;20046;-78
2022/05/26 10:59:42;;;;;;;11.20;2.25;;;19.70;99.90;;;;;;5016116;28;20041;-80
2022/05/26 11:02:16;;;;;;;8.93;1.70;;;19.80;99.80;;;;;;5017154;28;20365;-79
2022/05/26 11:05:01;;;;;;;12.65;2.47;;;19.90;99.90;;;;;;5016179;28;20049;-81
2022/05/26 11:07:39;;;;;;;13.68;2.13;;;20.00;99.80;;;;;;5035258;28;20046;-88
2022/05/26 11:10:23;;;;;;;9.88;1.90;;;20.10;99.20;;;;;;5035840;28;20052;-86
2022/05/26 11:13:04;;;;;;;6.85;1.67;;;20.10;99.00;;;;;;5018357;28;20056;-81
2022/05/26 11:18:36;;;;;;;8.70;2.00;;;20.20;98.50;;;;;;5035620;28;20050;-83
2022/05/26 11:21:04;;;;;;;8.52;1.90;;;20.20;99.00;;;;;;5035709;28;20463;-84
2022/05/26 11:23:35;;;;;;;;;;;20.30;98.90;;;;;;5036807;28;20060;-83
2022/05/26 11:26:44;;;;;;;6.05;1.23;;;20.30;97.80;;;;;;5018356;28;19936;-85
2022/05/26 11:29:26;;;;;;;11.90;1.50;;;20.30;98.60;;;;;;5019068;28;20061;-88
2022/05/26 11:38:05;;;;;;;;;;;20.80;98.30;;;;;;5035547;28;20065;-78
2022/05/26 11:40:49;;;;;;;7.40;1.58;;;21.10;98.20;;;;;;5003261;28;19924;-79
2022/05/26 11:43:39;;;;;;;7.88;1.55;;;21.30;97.40;;;;;;5024523;28;20056;-79
2022/05/26 11:46:09;;;;;;;6.85;1.70;;;21.50;97.70;;;;;;5055120;28;20060;-80
2022/05/26 11:48:44;;;;;;;8.45;1.67;;;21.50;97.50;;;;;;5055238;28;20045;-78
2022/05/26 11:51:29;;;;;;;9.57;1.63;;;21.50;97.80;;;;;;5054386;28;20086;-79
2022/05/26 11:53:59;;;;;;;8.98;1.30;;;21.60;96.30;;;;;;5055578;28;20041;-78
2022/05/26 11:56:28;;;;;;;5.40;1.73;;;21.70;97.30;;;;;;5055534;28;20041;-80
2022/05/26 11:59:20;;;;;;;8.07;1.30;;;21.60;96.20;;;;;;5036704;28;20049;-80
2022/05/26 12:02:08;;;;;;;5.47;1.17;;;21.60;96.00;;;;;;5054973;28;20041;-78
2022/05/26 12:04:48;;;;;;;4.88;1.20;;;21.50;96.20;;;;;;5053415;28;20053;-79
2022/05/26 12:07:17;;;;;;;7.80;1.30;;;20.80;96.50;;;;;;5022533;28;20381;-79
2022/05/26 12:09:54;;;;;;;4.35;1.30;;;21.30;96.60;;;;;;5021324;28;20064;-79
2022/05/26 12:12:33;;;;;;;6.07;1.13;;;21.20;96.30;;;;;;5054226;28;20049;-79
2022/05/26 12:15:07;;;;;;;3.72;1.02;;;21.30;96.60;;;;;;5055288;28;20360;-80
2022/05/26 12:17:57;;;;;;;4.40;1.13;;;21.40;96.30;;;;;;5055008;28;20044;-79
2022/05/26 12:20:25;;;;;;;6.07;1.45;;;21.50;96.30;;;;;;5037705;28;20060;-78
2022/05/26 12:22:53;;;;;;;6.05;1.20;;;21.60;96.50;;;;;;5055132;28;20059;-78
2022/05/26 12:25:26;;;;;;;5.32;1.38;;;21.70;96.60;;;;;;5036620;28;20041;-79
2022/05/26 12:28:22;;;;;;;5.10;1.25;;;21.90;96.60;;;;;;5021559;28;20075;-80
2022/05/26 12:30:50;;;;;;;7.20;1.20;;;22.00;96.10;;;;;;5027071;28;20056;-74
2022/05/26 12:33:23;;;;;;;3.72;1.05;;;21.90;95.90;;;;;;5033223;28;20057;-83
2022/05/26 12:36:13;;;;;;;5.68;1.30;;;21.80;96.10;;;;;;5018077;28;20056;-81
2022/05/26 12:39:43;;;;;;;7.13;1.13;;;22.00;95.80;;;;;;5034080;28;20045;-85
2022/05/26 12:42:30;;;;;;;5.78;1.10;;;22.10;95.60;;;;;;4975751;28;20058;-86
2022/05/26 12:45:22;;;;;;;6.97;1.65;;;22.20;96.10;;;;;;4973494;28;20142;-80
2022/05/26 12:48:17;;;;;;;4.32;1.08;;;22.20;95.70;;;;;;4980102;28;20050;-79
2022/05/26 12:50:44;;;;;;;3.47;1.10;;;22.10;94.90;;;;;;5016622;28;20046;-81
2022/05/26 12:53:22;;;;;;;4.03;1.10;;;21.90;95.30;;;;;;5033790;28;20045;-80
2022/05/26 12:56:06;;;;;;;6.18;1.20;;;21.80;95.50;;;;;;5017119;28;20076;-81
2022/05/26 12:58:42;;;;;;;4.15;1.17;;;21.70;95.20;;;;;;5033832;28;20467;-75
2022/05/26 13:01:14;;;;;;;4.53;1.05;;;21.50;95.00;;;;;;5034639;28;20045;-77
2022/05/26 13:03:45;;;;;;;6.28;1.40;;;21.40;95.20;;;;;;5034911;28;20049;-82
2022/05/26 13:06:21;;;;;;;4.90;1.20;;;21.50;95.80;;;;;;5001347;28;20049;-85
2022/05/26 13:08:58;;;;;;;4.25;1.27;;;21.50;95.50;;;;;;5035173;28;20067;-81
2022/05/26 13:11:32;;;;;;;5.72;1.17;;;21.30;95.60;;;;;;5016458;28;20248;-86
2022/05/26 13:14:06;;;;;;;5.38;1.15;;;21.20;95.70;;;;;;5017715;28;20456;-86
2022/05/26 13:16:38;;;;;;;7.03;1.20;;;21.20;96.10;;;;;;5017698;28;20049;-90
2022/05/26 13:19:14;;;;;;;4.60;1.20;;;21.10;96.10;;;;;;5016930;28;20064;-82
2022/05/26 13:21:44;;;;;;;6.93;1.45;;;21.20;96.20;;;;;;5034897;28;20046;-85
2022/05/26 13:24:23;;;;;;;5.97;1.20;;;21.20;96.10;;;;;;5018135;28;20041;-88
2022/05/26 13:26:56;;;;;;;8.20;1.17;;;21.40;95.80;;;;;;5018956;28;20437;-80
2022/05/26 13:29:24;;;;;;;5.97;1.40;;;21.50;95.90;;;;;;5015196;28;20050;-78
2022/05/26 13:34:51;;;;;;;3.67;1.30;;;21.50;96.00;;;;;;5014805;28;20046;-82
2022/05/26 13:37:29;;;;;;;6.30;1.25;;;21.50;95.70;;;;;;4998174;28;20303;-82
2022/05/26 13:40:14;;;;;;;4.37;1.00;;;21.70;95.80;;;;;;5013757;28;20365;-83
2022/05/26 13:42:51;;;;;;;4.50;1.02;;;21.70;95.60;;;;;;4981556;28;20527;-85
2022/05/26 13:45:34;;;;;;;7.15;1.20;;;21.80;95.30;;;;;;4999164;28;20046;-89
2022/05/26 13:48:28;;;;;;;6.63;1.25;;;21.90;95.30;;;;;;5001861;28;20042;-90
2022/05/26 13:51:13;;;;;;;3.38;1.10;;;22.30;94.90;;;;;;5019145;28;20042;-89
2022/05/26 13:53:53;;;;;;;6.63;1.45;;;23.00;94.70;;;;;;5030837;28;20496;-84
2022/05/26 13:56:32;;;;;;;4.60;1.45;;;23.10;93.90;;;;;;5021412;28;20045;-81
2022/05/26 13:59:10;;;;;;;4.97;1.20;;;23.30;94.10;;;;;;5036895;28;20046;-81
2022/05/26 14:01:51;;;;;;;4.47;1.10;;;23.30;93.70;;;;;;5037426;28;20060;-82